KVNW Airport (Van Wert County) Information

FAA: VNW - ICAO: KVNW

KVNW Airport Location

State Ohio
County Van Wert
City Van Wert
KVNW Airport is 2 miles southwest of Van Wert, OH.
Latitude 40-51-49.7861N
Longitude 084-36-22.8888W
Elevation 787ft

KVNW Airport METARs

METAR KVNW 161735Z AUTO 06005KT 10SM CLR 26/10 A3014 RMK AO2
Altimeter 30.14"
Temperature 26.0°C (78.8°F)
Wind 60° at 5KT
Clouds Skies are clear.
Visibility 10.0mi
Time observed: 2021-09-16T17:35:00Z

KVNW Airport Details

Status Operational
Activation N/A
Ownership Public
Usage Public
Chart DETROIT
ATC on-site No
Beacon schedule sunset-sunrise
Beacon color clear green

KVNW Airport Contacts

Owner VAN WERT CO. REGIONAL AIRPORT AUTH.
Owner address 1400 LEESON AVE, VAN WERT, OH 45891
Owner phone 419-232-4500
Manager STEPHEN ARNOLD
Manager address 11013 AIRPORT HWY, BOX 11, SWANTON, OH 43558
Manager phone (419) 865-2351

KVNW Airport (Van Wert County) Radio Frequencies

KVNW (Airport) Radio Frequencies

UNICOM 123
Common traffic advisory frequency (CTAF) 123